createdAt,value
2018-06-19T00:00:20.909Z,92.60
2018-06-19T00:02:53.634Z,92.60
2018-06-19T00:05:26.266Z,92.70
2018-06-19T00:07:58.673Z,92.70
2018-06-19T00:10:31.053Z,92.80
2018-06-19T00:13:03.689Z,93.00
2018-06-19T00:15:36.077Z,93.10
2018-06-19T00:18:13.561Z,93.30
2018-06-19T00:20:45.937Z,93.40
2018-06-19T00:23:18.341Z,93.20
2018-06-19T00:25:51.018Z,93.30
2018-06-19T00:28:23.453Z,93.50
2018-06-19T00:30:55.840Z,93.40
2018-06-19T00:33:28.245Z,93.40
2018-06-19T00:36:00.858Z,93.50
2018-06-19T00:38:33.289Z,93.50
2018-06-19T00:41:05.816Z,93.60
2018-06-19T00:43:38.216Z,93.70
2018-06-19T00:46:10.812Z,93.50
2018-06-19T00:48:43.472Z,93.60
2018-06-19T00:51:15.864Z,93.70
2018-06-19T00:53:48.277Z,93.80
2018-06-19T00:56:32.485Z,93.80
2018-06-19T00:59:04.889Z,93.80
2018-06-19T01:01:37.270Z,93.80
2018-06-19T01:04:09.669Z,93.70
2018-06-19T01:06:42.322Z,94.00
2018-06-19T01:09:15.025Z,93.90
2018-06-19T01:11:47.404Z,93.90
2018-06-19T01:14:19.800Z,93.90
2018-06-19T01:16:52.244Z,94.10
2018-06-19T01:19:24.632Z,94.10
2018-06-19T01:21:57.017Z,94.20
2018-06-19T01:24:29.973Z,94.20
2018-06-19T01:29:34.914Z,94.40
2018-06-19T01:32:07.294Z,94.40
2018-06-19T01:34:40.008Z,94.60
2018-06-19T01:37:12.377Z,94.50
2018-06-19T01:39:44.789Z,94.70
2018-06-19T01:42:17.729Z,94.70
2018-06-19T01:44:50.150Z,94.70
2018-06-19T01:47:22.532Z,94.80
2018-06-19T01:49:55.226Z,94.90
2018-06-19T01:52:27.873Z,95.00
2018-06-19T01:55:00.592Z,95.20
2018-06-19T01:57:32.964Z,95.30
2018-06-19T02:00:05.369Z,95.30
2018-06-19T02:02:37.753Z,95.40
2018-06-19T02:05:10.158Z,95.50
2018-06-19T02:07:42.572Z,95.40
2018-06-19T02:10:15.000Z,95.60
2018-06-19T02:12:47.674Z,95.70
2018-06-19T02:15:20.405Z,95.70
2018-06-19T02:17:52.785Z,95.70
2018-06-19T02:20:25.193Z,95.80
2018-06-19T02:22:57.572Z,95.70
2018-06-19T02:25:30.094Z,95.80
2018-06-19T02:28:02.468Z,95.80
2018-06-19T02:30:34.864Z,96.20
2018-06-19T02:33:07.994Z,95.90
2018-06-19T02:35:40.666Z,95.80
2018-06-19T02:38:13.053Z,95.90
2018-06-19T02:40:45.468Z,95.80
2018-06-19T02:43:17.853Z,95.80
2018-06-19T02:45:50.583Z,95.90
2018-06-19T02:48:23.046Z,96.00
2018-06-19T02:50:55.725Z,96.00
2018-06-19T02:53:28.393Z,95.90
2018-06-19T02:56:01.069Z,95.90
2018-06-19T02:58:33.733Z,95.80
2018-06-19T03:01:06.141Z,95.90
2018-06-19T03:03:39.046Z,96.00
2018-06-19T03:06:11.461Z,96.20
2018-06-19T03:08:44.167Z,96.00
2018-06-19T03:11:16.557Z,95.90
2018-06-19T03:13:49.189Z,95.80
2018-06-19T03:16:21.592Z,95.90
2018-06-19T03:18:53.977Z,96.00
2018-06-19T03:21:26.878Z,96.20
2018-06-19T03:23:59.261Z,96.10
2018-06-19T03:26:31.670Z,96.10
2018-06-19T03:29:04.058Z,96.20
2018-06-19T03:31:36.468Z,96.20
2018-06-19T03:34:09.080Z,96.20
2018-06-19T03:36:41.769Z,96.30
2018-06-19T03:39:14.149Z,96.30
2018-06-19T03:41:46.553Z,96.30
2018-06-19T03:44:19.040Z,96.30
2018-06-19T03:46:51.455Z,96.20
2018-06-19T03:49:24.090Z,96.00
2018-06-19T03:51:56.504Z,96.10
2018-06-19T03:54:28.890Z,96.30
2018-06-19T03:57:01.590Z,96.30
2018-06-19T03:59:33.967Z,96.00
2018-06-19T04:02:06.665Z,95.80
2018-06-19T04:04:39.045Z,95.90
2018-06-19T04:07:11.442Z,95.60
2018-06-19T04:09:44.085Z,95.40
2018-06-19T04:12:16.525Z,95.10
2018-06-19T04:14:48.912Z,95.00
2018-06-19T04:17:21.309Z,94.50
2018-06-19T04:19:53.698Z,94.60
2018-06-19T04:22:26.097Z,94.40
2018-06-19T04:24:58.520Z,94.20
2018-06-19T04:27:30.905Z,94.30
2018-06-19T04:30:03.725Z,94.20
2018-06-19T04:32:36.737Z,94.10
2018-06-19T04:35:09.122Z,94.20
2018-06-19T04:37:42.018Z,94.10
2018-06-19T04:40:14.393Z,94.40
2018-06-19T04:42:46.785Z,94.20
2018-06-19T04:45:19.509Z,94.20
2018-06-19T04:47:51.903Z,94.20
2018-06-19T04:52:57.169Z,94.30
2018-06-19T04:55:29.642Z,94.30
2018-06-19T04:58:02.278Z,94.30
2018-06-19T05:00:34.666Z,94.20
2018-06-19T05:03:07.063Z,94.30
2018-06-19T05:05:39.441Z,94.20
2018-06-19T05:08:12.065Z,94.20
2018-06-19T05:10:45.581Z,94.20
2018-06-19T05:13:17.986Z,94.20
2018-06-19T05:15:50.369Z,94.20
2018-06-19T05:18:23.034Z,94.30
2018-06-19T05:20:55.674Z,94.20
2018-06-19T05:23:28.074Z,94.20
2018-06-19T05:26:00.479Z,94.20
2018-06-19T05:28:33.135Z,94.30
2018-06-19T05:31:05.522Z,94.20
2018-06-19T05:33:38.273Z,94.20
2018-06-19T05:36:10.945Z,94.20
2018-06-19T05:38:43.346Z,94.20
2018-06-19T05:41:15.746Z,94.20
2018-06-19T05:43:48.286Z,94.20
2018-06-19T05:46:20.810Z,94.10
2018-06-19T05:48:53.701Z,94.10
2018-06-19T05:51:26.114Z,94.00
2018-06-19T05:53:58.514Z,93.90
2018-06-19T05:56:31.343Z,93.70
2018-06-19T05:59:03.752Z,93.70
2018-06-19T06:01:36.425Z,93.60
2018-06-19T06:04:08.905Z,93.60
2018-06-19T06:06:41.293Z,93.50
2018-06-19T06:09:14.061Z,93.60
2018-06-19T06:11:46.461Z,93.60
2018-06-19T06:14:19.511Z,93.90
2018-06-19T06:16:51.984Z,93.50
2018-06-19T06:19:24.662Z,93.50
2018-06-19T06:21:57.308Z,93.50
2018-06-19T06:24:30.022Z,93.30
2018-06-19T06:27:02.762Z,93.30
2018-06-19T06:29:35.175Z,93.30
2018-06-19T06:32:07.581Z,93.20
2018-06-19T06:34:40.297Z,93.20
2018-06-19T06:37:13.007Z,93.20
2018-06-19T06:39:45.650Z,93.00
2018-06-19T06:42:18.261Z,93.00
2018-06-19T06:44:50.915Z,92.90
2018-06-19T06:47:23.617Z,92.90
2018-06-19T06:49:56.019Z,92.80
2018-06-19T06:52:28.420Z,92.60
2018-06-19T06:55:00.820Z,92.70
2018-06-19T06:57:33.308Z,92.50
2018-06-19T07:00:06.088Z,92.30
2018-06-19T07:02:38.469Z,92.20
2018-06-19T07:05:11.142Z,92.10
2018-06-19T07:07:43.540Z,92.00
2018-06-19T07:10:15.991Z,91.70
2018-06-19T07:12:48.668Z,91.60
2018-06-19T07:15:21.065Z,91.50
2018-06-19T07:17:53.445Z,91.30
2018-06-19T07:20:26.497Z,91.30
2018-06-19T07:22:58.880Z,91.20
2018-06-19T07:25:31.545Z,91.20
2018-06-19T07:28:04.226Z,91.40
2018-06-19T07:30:36.978Z,91.20
2018-06-19T07:33:09.628Z,91.30
2018-06-19T07:35:42.065Z,91.30
2018-06-19T07:38:14.522Z,91.40
2018-06-19T07:40:46.909Z,91.30
2018-06-19T07:43:19.309Z,91.50
2018-06-19T07:45:52.061Z,91.40
2018-06-19T07:48:24.837Z,91.40
2018-06-19T07:50:57.290Z,91.30
2018-06-19T07:53:29.695Z,91.10
2018-06-19T07:56:02.089Z,91.70
2018-06-19T07:58:34.778Z,91.30
2018-06-19T08:01:07.213Z,91.50
2018-06-19T08:03:39.929Z,91.40
2018-06-19T08:06:12.846Z,91.30
2018-06-19T08:08:45.550Z,91.50
2018-06-19T08:11:17.941Z,91.60
2018-06-19T08:13:50.661Z,91.70
2018-06-19T08:16:23.940Z,91.90
2018-06-19T08:18:56.321Z,92.10
2018-06-19T08:21:28.721Z,92.00
2018-06-19T08:24:01.095Z,91.80
2018-06-19T08:26:33.521Z,91.90
2018-06-19T08:29:05.930Z,92.00
2018-06-19T08:31:38.334Z,92.10
2018-06-19T08:34:10.735Z,92.30
2018-06-19T08:36:43.431Z,92.20
2018-06-19T08:39:15.838Z,92.30
2018-06-19T08:41:48.535Z,92.30
2018-06-19T08:44:20.933Z,92.20
2018-06-19T08:46:53.322Z,92.40
2018-06-19T08:49:25.729Z,92.40
2018-06-19T08:51:58.121Z,92.30
2018-06-19T08:54:30.758Z,92.50
2018-06-19T08:57:03.141Z,92.60
2018-06-19T08:59:35.557Z,92.80
2018-06-19T09:02:08.161Z,92.80
2018-06-19T09:04:40.569Z,92.90
2018-06-19T09:07:12.955Z,92.90
2018-06-19T09:09:45.384Z,93.10
2018-06-19T09:12:17.777Z,93.00
2018-06-19T09:14:50.485Z,93.00
2018-06-19T09:17:22.865Z,93.10
2018-06-19T09:19:55.277Z,93.50
2018-06-19T09:22:27.666Z,93.90
2018-06-19T09:25:00.090Z,94.00
2018-06-19T09:27:32.859Z,94.20
2018-06-19T09:30:05.514Z,94.30
2018-06-19T09:32:37.922Z,94.40
2018-06-19T09:35:10.317Z,94.70
2018-06-19T09:37:42.958Z,94.70
2018-06-19T09:40:15.597Z,94.70
2018-06-19T09:42:48.261Z,94.10
2018-06-19T09:45:20.661Z,93.70
2018-06-19T09:47:53.261Z,93.50
2018-06-19T09:50:25.913Z,93.50
2018-06-19T09:52:58.620Z,93.40
2018-06-19T09:55:31.101Z,93.50
2018-06-19T09:58:03.831Z,93.90
2018-06-19T10:00:36.530Z,93.90
2018-06-19T10:03:09.192Z,94.20
2018-06-19T10:05:41.901Z,94.30
2018-06-19T10:08:14.273Z,94.40
2018-06-19T10:10:46.679Z,94.20
2018-06-19T10:13:19.061Z,94.20
2018-06-19T10:15:51.472Z,93.90
2018-06-19T10:18:23.877Z,94.00
2018-06-19T10:20:56.273Z,94.50
2018-06-19T10:23:28.674Z,95.00
2018-06-19T10:26:01.077Z,95.00
2018-06-19T10:31:05.982Z,96.10
2018-06-19T10:33:38.407Z,96.90
2018-06-19T10:36:10.882Z,97.60
2018-06-19T10:38:43.355Z,97.10
2018-06-19T10:41:15.834Z,96.00
2018-06-19T10:43:48.216Z,95.20
2018-06-19T10:46:20.732Z,93.80
2018-06-19T10:48:53.122Z,93.60
2018-06-19T10:51:25.627Z,93.00
2018-06-19T10:53:58.013Z,93.00
2018-06-19T10:56:30.415Z,92.80
2018-06-19T10:59:02.891Z,92.60
2018-06-19T11:01:35.258Z,91.90
2018-06-19T11:04:07.645Z,91.90
2018-06-19T11:06:40.377Z,91.40
2018-06-19T11:09:12.760Z,91.00
2018-06-19T11:11:45.493Z,90.90
2018-06-19T11:14:18.141Z,90.60
2018-06-19T11:16:50.535Z,90.50
2018-06-19T11:19:22.939Z,90.40
2018-06-19T11:21:55.373Z,90.50
2018-06-19T11:24:27.989Z,90.50
2018-06-19T11:27:00.668Z,91.00
2018-06-19T11:29:33.057Z,91.90
2018-06-19T11:32:05.460Z,92.50
2018-06-19T11:34:37.878Z,93.20
2018-06-19T11:37:10.770Z,94.50
2018-06-19T11:39:43.149Z,95.00
2018-06-19T11:42:15.546Z,95.90
2018-06-19T11:44:48.025Z,95.60
2018-06-19T11:47:20.941Z,95.90
2018-06-19T11:49:53.325Z,95.60
2018-06-19T11:52:25.856Z,95.60
2018-06-19T11:54:58.537Z,95.90
2018-06-19T11:57:30.949Z,95.80
2018-06-19T12:00:04.224Z,94.90
2018-06-19T12:02:36.624Z,93.80
2018-06-19T12:05:09.030Z,93.40
2018-06-19T12:07:41.418Z,92.80
2018-06-19T12:10:14.102Z,92.20
2018-06-19T12:12:46.527Z,91.00
2018-06-19T12:15:18.901Z,91.20
2018-06-19T12:17:51.302Z,91.50
2018-06-19T12:20:23.737Z,91.10
2018-06-19T12:22:56.145Z,91.20
2018-06-19T12:25:28.798Z,91.10
2018-06-19T12:28:01.202Z,91.30
2018-06-19T12:30:33.593Z,91.30
2018-06-19T12:33:06.016Z,91.20
2018-06-19T12:35:38.398Z,90.50
2018-06-19T12:38:10.797Z,90.40
2018-06-19T12:40:43.438Z,90.50
2018-06-19T12:43:15.841Z,90.40
2018-06-19T12:45:48.544Z,90.20
2018-06-19T12:48:21.221Z,90.30
2018-06-19T12:52:06.794Z,90.30
2018-06-19T12:54:54.702Z,90.20
2018-06-19T12:57:27.097Z,90.10
2018-06-19T12:59:59.516Z,89.80
2018-06-19T13:02:31.923Z,89.10
2018-06-19T13:06:16.610Z,88.50
2018-06-19T13:08:49.012Z,87.80
2018-06-19T13:11:21.684Z,87.10
2018-06-19T13:14:05.293Z,87.00
2018-06-19T13:16:49.041Z,87.10
2018-06-19T13:19:32.806Z,86.80
2018-06-19T13:22:05.418Z,87.10
2018-06-19T13:24:37.841Z,86.50
2018-06-19T13:27:10.267Z,86.10
2018-06-19T13:29:54.145Z,85.60
2018-06-19T13:32:26.546Z,85.80
2018-06-19T13:34:59.253Z,86.10
2018-06-19T13:37:31.944Z,86.10
2018-06-19T13:41:13.627Z,86.20
2018-06-19T13:43:57.573Z,86.60
2018-06-19T13:46:29.962Z,86.80
2018-06-19T13:49:02.368Z,87.30
2018-06-19T13:51:35.042Z,87.30
2018-06-19T13:54:07.993Z,87.70
2018-06-19T13:56:54.237Z,88.10
2018-06-19T13:59:26.957Z,88.10
2018-06-19T14:01:59.412Z,87.80
2018-06-19T14:04:31.834Z,87.70
2018-06-19T14:07:04.217Z,87.80
2018-06-19T14:10:51.924Z,87.70
2018-06-19T14:13:24.321Z,87.90
2018-06-19T14:15:56.739Z,88.50
2018-06-19T14:18:29.130Z,88.50
2018-06-19T14:21:01.777Z,88.70
2018-06-19T14:23:34.186Z,89.00
2018-06-19T14:26:06.785Z,89.70
2018-06-19T14:28:39.509Z,89.10
2018-06-19T14:31:12.161Z,89.40
2018-06-19T14:33:44.569Z,88.60
2018-06-19T14:36:16.955Z,88.60
2018-06-19T14:38:49.353Z,88.00
2018-06-19T14:41:21.974Z,88.10
2018-06-19T14:43:54.638Z,87.30
2018-06-19T14:46:27.062Z,87.30
2018-06-19T14:48:59.738Z,87.40
2018-06-19T14:51:32.133Z,86.70
2018-06-19T14:54:04.632Z,87.00
2018-06-19T14:56:37.056Z,85.80
2018-06-19T14:59:09.734Z,86.50
2018-06-19T15:01:42.130Z,85.50
2018-06-19T15:04:14.526Z,85.20
2018-06-19T15:06:46.914Z,85.20
2018-06-19T15:09:19.317Z,85.10
2018-06-19T15:11:52.208Z,85.30
2018-06-19T15:14:24.607Z,84.70
2018-06-19T15:16:57.626Z,84.90
2018-06-19T15:19:30.345Z,85.70
2018-06-19T15:22:02.748Z,86.30
2018-06-19T15:24:35.469Z,86.20
2018-06-19T15:27:07.853Z,85.90
2018-06-19T15:29:40.272Z,85.70
2018-06-19T15:32:13.023Z,87.10
2018-06-19T15:34:45.422Z,87.20
2018-06-19T15:37:18.145Z,87.20
2018-06-19T15:39:50.549Z,87.30
2018-06-19T15:42:23.225Z,87.20
2018-06-19T15:44:55.650Z,87.10
2018-06-19T15:47:28.006Z,87.00
2018-06-19T15:50:00.724Z,87.20
2018-06-19T15:52:33.429Z,87.00
2018-06-19T15:55:05.828Z,86.80
2018-06-19T15:57:38.317Z,86.50
2018-06-19T16:00:10.748Z,87.10
2018-06-19T16:02:43.150Z,85.90
2018-06-19T16:05:15.860Z,85.60
2018-06-19T16:07:48.890Z,85.80
2018-06-19T16:10:21.377Z,86.20
2018-06-19T16:12:54.042Z,86.10
2018-06-19T16:15:26.692Z,85.90
2018-06-19T16:17:59.372Z,85.00
2018-06-19T16:20:31.773Z,84.80
2018-06-19T16:23:04.162Z,85.00
2018-06-19T16:25:36.882Z,84.70
2018-06-19T16:28:09.270Z,84.60
2018-06-19T16:30:41.973Z,84.70
2018-06-19T16:33:14.617Z,84.40
2018-06-19T16:35:47.057Z,83.80
2018-06-19T16:38:19.737Z,83.80
2018-06-19T16:40:52.101Z,83.80
2018-06-19T16:43:24.486Z,83.70
2018-06-19T16:45:56.897Z,83.50
2018-06-19T16:51:02.230Z,83.70
2018-06-19T16:53:34.953Z,83.90
2018-06-19T16:56:07.353Z,84.10
2018-06-19T16:58:40.224Z,84.30
2018-06-19T17:01:12.890Z,84.30
2018-06-19T17:03:45.513Z,84.70
2018-06-19T17:06:17.918Z,84.90
2018-06-19T17:08:50.313Z,85.50
2018-06-19T17:11:22.966Z,86.20
2018-06-19T17:13:55.344Z,86.00
2018-06-19T17:16:28.038Z,86.60
2018-06-19T17:19:00.458Z,86.70
2018-06-19T17:21:32.861Z,87.10
2018-06-19T17:24:05.527Z,87.30
2018-06-19T17:26:37.939Z,87.20
2018-06-19T17:29:10.326Z,87.20
2018-06-19T17:31:42.806Z,87.30
2018-06-19T17:34:15.569Z,87.40
2018-06-19T17:36:47.966Z,87.70
2018-06-19T17:39:20.732Z,87.80
2018-06-19T17:41:53.149Z,87.70
2018-06-19T17:44:25.842Z,88.00
2018-06-19T17:46:58.579Z,88.30
2018-06-19T17:49:31.357Z,88.70
2018-06-19T17:52:03.752Z,88.50
2018-06-19T17:54:36.175Z,89.00
2018-06-19T17:57:08.853Z,89.00
2018-06-19T17:59:41.636Z,89.30
2018-06-19T18:02:14.253Z,89.20
2018-06-19T18:04:46.657Z,89.40
2018-06-19T18:07:19.038Z,89.40
2018-06-19T18:09:51.437Z,89.30
2018-06-19T18:12:23.822Z,89.80
2018-06-19T18:14:56.594Z,89.60
2018-06-19T18:17:28.972Z,89.70
2018-06-19T18:20:01.735Z,89.70
2018-06-19T18:22:34.121Z,89.60
2018-06-19T18:25:06.513Z,89.90
2018-06-19T18:27:38.952Z,89.90
2018-06-19T18:30:11.424Z,89.90
2018-06-19T18:32:44.103Z,90.10
2018-06-19T18:35:16.505Z,90.10
2018-06-19T18:37:48.894Z,90.20
2018-06-19T18:40:21.638Z,90.30
2018-06-19T18:42:54.021Z,90.30
2018-06-19T18:45:26.449Z,90.60
2018-06-19T18:50:31.096Z,90.70
2018-06-19T18:55:42.386Z,90.80
2018-06-19T18:58:15.053Z,90.90
2018-06-19T19:00:47.462Z,91.00
2018-06-19T19:03:19.869Z,91.00
2018-06-19T19:05:52.274Z,91.20
2018-06-19T19:08:24.657Z,91.10
2018-06-19T19:10:57.313Z,91.30
2018-06-19T19:13:29.742Z,91.30
2018-06-19T19:16:02.148Z,91.30
2018-06-19T19:18:34.538Z,91.40
2018-06-19T19:21:07.265Z,91.60
2018-06-19T19:23:39.948Z,91.50
2018-06-19T19:26:12.530Z,91.60
2018-06-19T19:28:44.913Z,91.60
2018-06-19T19:31:17.313Z,91.70
2018-06-19T19:33:49.698Z,91.70
2018-06-19T19:36:22.089Z,91.70
2018-06-19T19:38:54.488Z,91.80
2018-06-19T19:41:27.123Z,92.00
2018-06-19T19:43:59.529Z,92.00
2018-06-19T19:46:31.927Z,92.10
2018-06-19T19:49:04.509Z,92.20
2018-06-19T19:51:37.204Z,92.10
2018-06-19T19:54:09.865Z,92.20
2018-06-19T19:56:42.266Z,92.30
2018-06-19T19:59:14.922Z,92.40
2018-06-19T20:01:47.319Z,92.30
2018-06-19T20:04:19.719Z,92.40
2018-06-19T20:06:52.357Z,92.50
2018-06-19T20:09:24.768Z,92.60
2018-06-19T20:11:57.264Z,92.60
2018-06-19T20:14:29.630Z,92.80
2018-06-19T20:17:02.049Z,92.90
2018-06-19T20:19:35.382Z,92.90
2018-06-19T20:22:08.033Z,93.00
2018-06-19T20:24:40.637Z,92.90
2018-06-19T20:27:13.050Z,93.10
2018-06-19T20:29:45.446Z,93.10
2018-06-19T20:32:17.841Z,93.10
2018-06-19T20:34:50.237Z,93.20
2018-06-19T20:37:22.646Z,93.30
2018-06-19T20:39:55.034Z,93.30
2018-06-19T20:42:27.545Z,93.50
2018-06-19T20:44:59.962Z,93.50
2018-06-19T20:47:32.901Z,93.50
2018-06-19T20:50:05.289Z,93.60
2018-06-19T20:52:37.699Z,93.60
2018-06-19T20:55:10.381Z,93.70
2018-06-19T20:57:43.106Z,93.70
2018-06-19T21:00:15.750Z,93.80
2018-06-19T21:02:48.438Z,93.80
2018-06-19T21:05:20.822Z,93.80
2018-06-19T21:07:53.474Z,93.80
2018-06-19T21:10:26.106Z,93.90
2018-06-19T21:12:58.931Z,93.90
2018-06-19T21:15:31.381Z,93.90
2018-06-19T21:18:04.026Z,93.90
2018-06-19T21:20:36.408Z,93.80
2018-06-19T21:23:09.048Z,93.80
2018-06-19T21:25:41.473Z,93.90
2018-06-19T21:28:13.952Z,94.00
2018-06-19T21:30:46.677Z,94.00
2018-06-19T21:33:19.084Z,94.10
2018-06-19T21:35:51.547Z,94.20
2018-06-19T21:38:23.997Z,94.20
2018-06-19T21:40:56.399Z,94.20
2018-06-19T21:43:28.949Z,94.30
2018-06-19T21:46:01.354Z,94.40
2018-06-19T21:48:33.758Z,94.40
2018-06-19T21:51:06.137Z,94.50
2018-06-19T21:53:38.570Z,94.50
2018-06-19T21:56:12.082Z,94.60
2018-06-19T21:58:44.580Z,94.50
2018-06-19T22:01:17.007Z,94.50
2018-06-19T22:03:49.477Z,94.50
2018-06-19T22:06:21.869Z,94.50
2018-06-19T22:08:54.285Z,94.50
2018-06-19T22:11:27.002Z,94.50
2018-06-19T22:13:59.417Z,94.50
2018-06-19T22:16:32.053Z,94.60
2018-06-19T22:19:04.576Z,94.70
2018-06-19T22:21:37.287Z,94.80
2018-06-19T22:24:09.760Z,94.80
2018-06-19T22:26:42.153Z,94.70
2018-06-19T22:29:14.667Z,94.60
2018-06-19T22:31:47.053Z,94.60
2018-06-19T22:34:19.490Z,94.70
2018-06-19T22:36:52.457Z,94.80
2018-06-19T22:39:24.905Z,94.90
2018-06-19T22:41:57.285Z,94.90
2018-06-19T22:44:29.938Z,94.80
2018-06-19T22:47:02.622Z,94.80
2018-06-19T22:49:35.626Z,94.90
2018-06-19T22:52:08.030Z,94.90
2018-06-19T22:54:40.429Z,94.90
2018-06-19T22:57:13.074Z,94.90
2018-06-19T22:59:45.462Z,94.90
2018-06-19T23:02:17.842Z,94.90
2018-06-19T23:04:50.246Z,95.10
2018-06-19T23:07:22.965Z,95.00
2018-06-19T23:09:55.613Z,95.10
2018-06-19T23:12:28.286Z,95.50
2018-06-19T23:15:00.981Z,95.10
2018-06-19T23:17:33.362Z,95.10
2018-06-19T23:20:05.758Z,95.10
2018-06-19T23:22:38.148Z,95.10
2018-06-19T23:25:10.570Z,95.10
2018-06-19T23:27:43.272Z,95.10
2018-06-19T23:30:15.948Z,95.10
2018-06-19T23:32:48.345Z,95.20
2018-06-19T23:35:20.741Z,95.30
2018-06-19T23:37:53.350Z,95.30
2018-06-19T23:42:58.010Z,95.50
2018-06-19T23:45:30.657Z,95.50
2018-06-19T23:48:03.038Z,95.50
2018-06-19T23:50:35.414Z,95.50
2018-06-19T23:53:08.070Z,95.50
2018-06-19T23:55:40.749Z,95.70
2018-06-19T23:58:13.122Z,95.70
